Terminal Aerodrome Forecast
Issued by NWS Amarillo, TX

Home | Current Version | Previous Version | Text Only | Print | Product List | Glossary On
Versions: 1 2 3 4 5 6 7 8 9 10 11 12 13 14 15 16 17 18 19 20
330
FTUS44 KAMA 282320
TAFDHT
TAF
KDHT 282320Z 2900/2924 14011KT P6SM SCT050 OVC120
     FM290400 19010KT P6SM SCT080 OVC150
      TEMPO 2905/2909 3SM TSRA BKN050CB
     FM291000 08006KT 4SM -TSRA BR BKN050CB
     FM291600 12010KT P6SM BKN050 OVC200=

USA.gov is the U.S. government's official web portal to all federal, state and local government web resources and services.